Grover, Colorado
Current Conditions -  °F | °C
As of 12:55 PM on Sunday 21 Dec 2014 (Local Time) from K82V Reporting Station
Overcast Overcast  
Wind Chill: 38°   Ceiling: 7500
Heat Index: 45°   Visibility: 10mi
Dew Point: 28°   Wind: 15mph
Humidity: 53%   Direction: 270°W
Pressure: 29.54"   Gusts: 23mph
Location:  40.87°N, 104.23°W
Report Text: K82V 211955Z AUTO 27013G20KT 10SM SCT065 OVC075 07/M02 A2954 RMK AO2
Loading
Personal Weather Stations






























Interactive Weather Map New forecast layout! Learn more

10-Day Weather Forecast

Advertisements
Track Severe Weather on mobile